sensor_id;sensor_type;location;lat;lon;timestamp;temperature;humidity
18454;DHT22;9356;52.202;20.950;2022-10-17T00:00:16;14.80;99.90
18454;DHT22;9356;52.202;20.950;2022-10-17T00:01:20;14.80;99.90
18454;DHT22;9356;52.202;20.950;2022-10-17T00:02:23;14.80;99.90
18454;DHT22;9356;52.202;20.950;2022-10-17T00:03:26;14.80;99.90
18454;DHT22;9356;52.202;20.950;2022-10-17T00:04:29;14.80;99.90
18454;DHT22;9356;52.202;20.950;2022-10-17T00:05:39;14.70;99.90
18454;DHT22;9356;52.202;20.950;2022-10-17T00:06:42;14.70;99.90
18454;DHT22;9356;52.202;20.950;2022-10-17T00:07:45;14.70;99.90
18454;DHT22;9356;52.202;20.950;2022-10-17T00:08:47;14.70;99.90
18454;DHT22;9356;52.202;20.950;2022-10-17T00:09:51;14.70;99.90
18454;DHT22;9356;52.202;20.950;2022-10-17T00:10:59;14.60;99.90
18454;DHT22;9356;52.202;20.950;2022-10-17T00:12:05;14.60;99.90
18454;DHT22;9356;52.202;20.950;2022-10-17T00:13:12;14.60;99.90
18454;DHT22;9356;52.202;20.950;2022-10-17T00:14:15;14.60;99.90
18454;DHT22;9356;52.202;20.950;2022-10-17T00:15:19;14.70;99.90
18454;DHT22;9356;52.202;20.950;2022-10-17T00:16:24;14.70;99.90
18454;DHT22;9356;52.202;20.950;2022-10-17T00:17:27;14.60;99.90
18454;DHT22;9356;52.202;20.950;2022-10-17T00:18:31;14.70;99.90
18454;DHT22;9356;52.202;20.950;2022-10-17T00:19:34;14.70;99.90
18454;DHT22;9356;52.202;20.950;2022-10-17T00:20:39;14.70;99.90
18454;DHT22;9356;52.202;20.950;2022-10-17T00:21:42;14.70;99.90
18454;DHT22;9356;52.202;20.950;2022-10-17T00:22:45;14.70;99.90
18454;DHT22;9356;52.202;20.950;2022-10-17T00:23:47;14.70;99.90
18454;DHT22;9356;52.202;20.950;2022-10-17T00:24:55;14.70;99.90
18454;DHT22;9356;52.202;20.950;2022-10-17T00:26:02;14.70;99.90
18454;DHT22;9356;52.202;20.950;2022-10-17T00:27:08;14.70;99.90
18454;DHT22;9356;52.202;20.950;2022-10-17T00:28:11;14.70;99.90
18454;DHT22;9356;52.202;20.950;2022-10-17T00:29:14;14.70;99.90
18454;DHT22;9356;52.202;20.950;2022-10-17T00:30:17;14.70;99.90
18454;DHT22;9356;52.202;20.950;2022-10-17T00:31:22;14.70;99.90
18454;DHT22;9356;52.202;20.950;2022-10-17T00:32:25;14.70;99.90
18454;DHT22;9356;52.202;20.950;2022-10-17T00:33:29;14.70;99.90
18454;DHT22;9356;52.202;20.950;2022-10-17T00:34:32;14.80;99.90
18454;DHT22;9356;52.202;20.950;2022-10-17T00:35:41;14.70;99.90
18454;DHT22;9356;52.202;20.950;2022-10-17T00:36:44;14.70;99.90
18454;DHT22;9356;52.202;20.950;2022-10-17T00:37:47;14.70;99.90
18454;DHT22;9356;52.202;20.950;2022-10-17T00:38:53;14.70;99.90
18454;DHT22;9356;52.202;20.950;2022-10-17T00:39:57;14.70;99.90
18454;DHT22;9356;52.202;20.950;2022-10-17T00:40:59;14.70;99.90
18454;DHT22;9356;52.202;20.950;2022-10-17T00:42:03;14.70;99.90
18454;DHT22;9356;52.202;20.950;2022-10-17T00:43:15;14.70;99.90
18454;DHT22;9356;52.202;20.950;2022-10-17T00:44:58;14.70;99.90
18454;DHT22;9356;52.202;20.950;2022-10-17T00:46:02;14.70;99.90
18454;DHT22;9356;52.202;20.950;2022-10-17T00:47:10;14.70;99.90
18454;DHT22;9356;52.202;20.950;2022-10-17T00:48:15;14.70;99.90
18454;DHT22;9356;52.202;20.950;2022-10-17T00:49:27;14.70;99.90
18454;DHT22;9356;52.202;20.950;2022-10-17T00:50:34;14.70;99.90
18454;DHT22;9356;52.202;20.950;2022-10-17T00:51:47;14.70;99.90
18454;DHT22;9356;52.202;20.950;2022-10-17T00:52:58;13.90;99.90
18454;DHT22;9356;52.202;20.950;2022-10-17T00:54:04;14.50;99.90
18454;DHT22;9356;52.202;20.950;2022-10-17T00:55:14;14.60;99.90
18454;DHT22;9356;52.202;20.950;2022-10-17T00:56:20;14.60;99.90
18454;DHT22;9356;52.202;20.950;2022-10-17T00:57:24;14.60;99.90
18454;DHT22;9356;52.202;20.950;2022-10-17T00:58:32;14.60;99.90
18454;DHT22;9356;52.202;20.950;2022-10-17T00:59:39;14.50;99.90
18454;DHT22;9356;52.202;20.950;2022-10-17T01:00:43;14.50;99.90
18454;DHT22;9356;52.202;20.950;2022-10-17T01:01:59;14.50;99.90
18454;DHT22;9356;52.202;20.950;2022-10-17T01:03:01;14.50;99.90
18454;DHT22;9356;52.202;20.950;2022-10-17T01:04:07;14.50;99.90
18454;DHT22;9356;52.202;20.950;2022-10-17T01:05:15;14.40;99.90
18454;DHT22;9356;52.202;20.950;2022-10-17T01:06:21;14.50;99.90
18454;DHT22;9356;52.202;20.950;2022-10-17T01:07:24;14.40;99.90
18454;DHT22;9356;52.202;20.950;2022-10-17T01:08:37;14.40;99.90
18454;DHT22;9356;52.202;20.950;2022-10-17T01:09:43;14.40;99.90
18454;DHT22;9356;52.202;20.950;2022-10-17T01:11:00;14.40;99.90
18454;DHT22;9356;52.202;20.950;2022-10-17T01:12:18;14.40;99.90
18454;DHT22;9356;52.202;20.950;2022-10-17T01:13:27;14.40;99.90
18454;DHT22;9356;52.202;20.950;2022-10-17T01:14:41;14.40;99.90
18454;DHT22;9356;52.202;20.950;2022-10-17T01:15:58;14.40;99.90
18454;DHT22;9356;52.202;20.950;2022-10-17T01:17:12;14.40;99.90
18454;DHT22;9356;52.202;20.950;2022-10-17T01:18:29;14.40;99.90
18454;DHT22;9356;52.202;20.950;2022-10-17T01:19:54;14.40;99.90
18454;DHT22;9356;52.202;20.950;2022-10-17T01:21:24;14.30;99.90
18454;DHT22;9356;52.202;20.950;2022-10-17T01:22:39;14.40;99.90
18454;DHT22;9356;52.202;20.950;2022-10-17T01:24:13;14.40;99.90
18454;DHT22;9356;52.202;20.950;2022-10-17T01:25:28;14.40;99.90
18454;DHT22;9356;52.202;20.950;2022-10-17T01:26:57;14.40;99.90
18454;DHT22;9356;52.202;20.950;2022-10-17T01:28:24;14.40;99.90
18454;DHT22;9356;52.202;20.950;2022-10-17T01:29:51;14.40;99.90
18454;DHT22;9356;52.202;20.950;2022-10-17T01:31:11;14.40;99.90
18454;DHT22;9356;52.202;20.950;2022-10-17T01:32:21;14.40;99.90
18454;DHT22;9356;52.202;20.950;2022-10-17T01:33:37;14.40;99.90
18454;DHT22;9356;52.202;20.950;2022-10-17T01:34:48;14.40;99.90
18454;DHT22;9356;52.202;20.950;2022-10-17T01:35:59;14.20;99.90
18454;DHT22;9356;52.202;20.950;2022-10-17T01:37:20;14.40;99.90
18454;DHT22;9356;52.202;20.950;2022-10-17T01:38:32;14.40;99.90
18454;DHT22;9356;52.202;20.950;2022-10-17T01:39:43;14.40;99.90
18454;DHT22;9356;52.202;20.950;2022-10-17T01:40:59;14.40;99.90
18454;DHT22;9356;52.202;20.950;2022-10-17T01:42:12;14.40;99.90
18454;DHT22;9356;52.202;20.950;2022-10-17T01:43:22;14.40;99.90
18454;DHT22;9356;52.202;20.950;2022-10-17T01:44:35;14.40;99.90
18454;DHT22;9356;52.202;20.950;2022-10-17T01:45:47;14.40;99.90
18454;DHT22;9356;52.202;20.950;2022-10-17T01:47:00;14.50;99.90
18454;DHT22;9356;52.202;20.950;2022-10-17T01:48:13;14.40;99.90
18454;DHT22;9356;52.202;20.950;2022-10-17T01:49:20;14.40;99.90
18454;DHT22;9356;52.202;20.950;2022-10-17T01:50:35;14.40;99.90
18454;DHT22;9356;52.202;20.950;2022-10-17T01:51:52;14.40;99.90
18454;DHT22;9356;52.202;20.950;2022-10-17T01:53:03;14.40;99.90
18454;DHT22;9356;52.202;20.950;2022-10-17T01:54:13;14.40;99.90
18454;DHT22;9356;52.202;20.950;2022-10-17T01:55:27;14.40;99.90
18454;DHT22;9356;52.202;20.950;2022-10-17T01:56:33;14.40;99.90
18454;DHT22;9356;52.202;20.950;2022-10-17T01:57:41;14.40;99.90
18454;DHT22;9356;52.202;20.950;2022-10-17T01:58:49;14.40;99.90
18454;DHT22;9356;52.202;20.950;2022-10-17T01:59:57;14.40;99.90
18454;DHT22;9356;52.202;20.950;2022-10-17T02:01:08;14.40;99.90
18454;DHT22;9356;52.202;20.950;2022-10-17T02:02:17;14.40;99.90
18454;DHT22;9356;52.202;20.950;2022-10-17T02:03:20;14.40;99.90
18454;DHT22;9356;52.202;20.950;2022-10-17T02:04:28;14.40;99.90
18454;DHT22;9356;52.202;20.950;2022-10-17T02:05:36;14.40;99.90
18454;DHT22;9356;52.202;20.950;2022-10-17T02:06:40;14.40;99.90
18454;DHT22;9356;52.202;20.950;2022-10-17T02:07:46;14.40;99.90
18454;DHT22;9356;52.202;20.950;2022-10-17T02:08:50;14.20;99.90
18454;DHT22;9356;52.202;20.950;2022-10-17T02:09:54;14.40;99.90
18454;DHT22;9356;52.202;20.950;2022-10-17T02:11:10;14.40;99.90
18454;DHT22;9356;52.202;20.950;2022-10-17T02:12:40;14.40;99.90
18454;DHT22;9356;52.202;20.950;2022-10-17T02:14:13;14.40;99.90
18454;DHT22;9356;52.202;20.950;2022-10-17T02:15:53;14.30;99.90
18454;DHT22;9356;52.202;20.950;2022-10-17T02:17:07;14.30;99.90
18454;DHT22;9356;52.202;20.950;2022-10-17T02:18:31;14.30;99.90
18454;DHT22;9356;52.202;20.950;2022-10-17T02:19:48;14.30;99.90
18454;DHT22;9356;52.202;20.950;2022-10-17T02:20:57;14.20;99.90
18454;DHT22;9356;52.202;20.950;2022-10-17T02:22:12;14.30;99.90
18454;DHT22;9356;52.202;20.950;2022-10-17T02:23:26;14.20;99.90
18454;DHT22;9356;52.202;20.950;2022-10-17T02:24:44;14.20;99.90
18454;DHT22;9356;52.202;20.950;2022-10-17T02:25:55;14.20;99.90
18454;DHT22;9356;52.202;20.950;2022-10-17T02:27:07;14.20;99.90
18454;DHT22;9356;52.202;20.950;2022-10-17T02:28:19;14.20;99.90
18454;DHT22;9356;52.202;20.950;2022-10-17T02:29:29;14.20;99.90
18454;DHT22;9356;52.202;20.950;2022-10-17T02:30:44;14.10;99.90
18454;DHT22;9356;52.202;20.950;2022-10-17T02:31:55;14.10;99.90
18454;DHT22;9356;52.202;20.950;2022-10-17T02:33:04;13.70;99.90
18454;DHT22;9356;52.202;20.950;2022-10-17T02:34:17;14.10;99.90
18454;DHT22;9356;52.202;20.950;2022-10-17T02:35:30;14.10;99.90
18454;DHT22;9356;52.202;20.950;2022-10-17T02:36:39;14.00;99.90
18454;DHT22;9356;52.202;20.950;2022-10-17T02:37:46;14.00;99.90
18454;DHT22;9356;52.202;20.950;2022-10-17T02:38:51;14.10;99.90
18454;DHT22;9356;52.202;20.950;2022-10-17T02:39:59;14.10;99.90
18454;DHT22;9356;52.202;20.950;2022-10-17T02:41:06;14.10;99.90
18454;DHT22;9356;52.202;20.950;2022-10-17T02:42:15;14.00;99.90
18454;DHT22;9356;52.202;20.950;2022-10-17T02:43:23;14.10;99.90
18454;DHT22;9356;52.202;20.950;2022-10-17T02:44:31;14.00;99.90
18454;DHT22;9356;52.202;20.950;2022-10-17T02:45:36;14.00;99.90
18454;DHT22;9356;52.202;20.950;2022-10-17T02:46:49;14.10;99.90
18454;DHT22;9356;52.202;20.950;2022-10-17T02:48:01;14.10;99.90
18454;DHT22;9356;52.202;20.950;2022-10-17T02:49:15;14.10;99.90
18454;DHT22;9356;52.202;20.950;2022-10-17T02:50:24;14.10;99.90
18454;DHT22;9356;52.202;20.950;2022-10-17T02:51:43;14.00;99.90
18454;DHT22;9356;52.202;20.950;2022-10-17T02:52:54;14.00;99.90
18454;DHT22;9356;52.202;20.950;2022-10-17T02:54:08;14.10;99.90
18454;DHT22;9356;52.202;20.950;2022-10-17T02:55:18;14.10;99.90
18454;DHT22;9356;52.202;20.950;2022-10-17T02:56:31;14.00;99.90
18454;DHT22;9356;52.202;20.950;2022-10-17T02:57:43;14.00;99.90
18454;DHT22;9356;52.202;20.950;2022-10-17T02:58:51;14.00;99.90
18454;DHT22;9356;52.202;20.950;2022-10-17T02:59:58;14.00;99.90
18454;DHT22;9356;52.202;20.950;2022-10-17T03:01:06;14.00;99.90
18454;DHT22;9356;52.202;20.950;2022-10-17T03:02:09;14.00;99.90
18454;DHT22;9356;52.202;20.950;2022-10-17T03:03:24;14.00;99.90
18454;DHT22;9356;52.202;20.950;2022-10-17T03:04:29;14.00;99.90
18454;DHT22;9356;52.202;20.950;2022-10-17T03:05:33;14.00;99.90
18454;DHT22;9356;52.202;20.950;2022-10-17T03:06:35;14.00;99.90
18454;DHT22;9356;52.202;20.950;2022-10-17T03:07:39;14.00;99.90
18454;DHT22;9356;52.202;20.950;2022-10-17T03:08:42;14.00;99.90
18454;DHT22;9356;52.202;20.950;2022-10-17T03:09:45;14.00;99.90
18454;DHT22;9356;52.202;20.950;2022-10-17T03:10:47;14.00;99.90
18454;DHT22;9356;52.202;20.950;2022-10-17T03:11:51;14.00;99.90
18454;DHT22;9356;52.202;20.950;2022-10-17T03:12:54;13.00;99.90
18454;DHT22;9356;52.202;20.950;2022-10-17T03:13:59;14.00;99.90
18454;DHT22;9356;52.202;20.950;2022-10-17T03:15:03;14.00;99.90
18454;DHT22;9356;52.202;20.950;2022-10-17T03:16:06;14.00;99.90
18454;DHT22;9356;52.202;20.950;2022-10-17T03:17:10;13.90;99.90
18454;DHT22;9356;52.202;20.950;2022-10-17T03:18:13;13.90;99.90
18454;DHT22;9356;52.202;20.950;2022-10-17T03:19:20;13.90;99.90
18454;DHT22;9356;52.202;20.950;2022-10-17T03:20:28;13.90;99.90
18454;DHT22;9356;52.202;20.950;2022-10-17T03:21:32;13.90;99.90
18454;DHT22;9356;52.202;20.950;2022-10-17T03:22:37;13.90;99.90
18454;DHT22;9356;52.202;20.950;2022-10-17T03:23:40;13.90;99.90
18454;DHT22;9356;52.202;20.950;2022-10-17T03:24:49;13.90;99.90
18454;DHT22;9356;52.202;20.950;2022-10-17T03:25:56;14.00;99.90
18454;DHT22;9356;52.202;20.950;2022-10-17T03:27:04;14.00;99.90
18454;DHT22;9356;52.202;20.950;2022-10-17T03:28:07;13.90;99.90
18454;DHT22;9356;52.202;20.950;2022-10-17T03:29:12;14.00;99.90
18454;DHT22;9356;52.202;20.950;2022-10-17T03:30:15;14.00;99.90
18454;DHT22;9356;52.202;20.950;2022-10-17T03:31:28;14.00;99.90
18454;DHT22;9356;52.202;20.950;2022-10-17T03:32:33;14.00;99.90
18454;DHT22;9356;52.202;20.950;2022-10-17T03:33:37;13.90;99.90
18454;DHT22;9356;52.202;20.950;2022-10-17T03:34:39;13.90;99.90
18454;DHT22;9356;52.202;20.950;2022-10-17T03:35:45;14.00;99.90
18454;DHT22;9356;52.202;20.950;2022-10-17T03:36:52;14.00;99.90
18454;DHT22;9356;52.202;20.950;2022-10-17T03:37:56;14.00;99.90
18454;DHT22;9356;52.202;20.950;2022-10-17T03:39:00;14.00;99.90
18454;DHT22;9356;52.202;20.950;2022-10-17T03:40:07;14.00;99.90
18454;DHT22;9356;52.202;20.950;2022-10-17T03:41:13;14.00;99.90
18454;DHT22;9356;52.202;20.950;2022-10-17T03:42:16;14.00;99.90
18454;DHT22;9356;52.202;20.950;2022-10-17T03:43:21;14.00;99.90
18454;DHT22;9356;52.202;20.950;2022-10-17T03:44:24;14.00;99.90
18454;DHT22;9356;52.202;20.950;2022-10-17T03:45:28;14.00;99.90
18454;DHT22;9356;52.202;20.950;2022-10-17T03:46:31;14.00;99.90
18454;DHT22;9356;52.202;20.950;2022-10-17T03:47:34;14.40;99.90
18454;DHT22;9356;52.202;20.950;2022-10-17T03:48:38;14.10;99.90
18454;DHT22;9356;52.202;20.950;2022-10-17T03:49:42;14.10;99.90
18454;DHT22;9356;52.202;20.950;2022-10-17T03:50:46;14.10;99.90
18454;DHT22;9356;52.202;20.950;2022-10-17T03:51:49;14.10;99.90
18454;DHT22;9356;52.202;20.950;2022-10-17T03:52:53;14.10;99.90
18454;DHT22;9356;52.202;20.950;2022-10-17T03:54:01;14.10;99.90
18454;DHT22;9356;52.202;20.950;2022-10-17T03:55:04;14.10;99.90
18454;DHT22;9356;52.202;20.950;2022-10-17T03:56:09;14.10;99.90
18454;DHT22;9356;52.202;20.950;2022-10-17T03:57:14;14.10;99.90
18454;DHT22;9356;52.202;20.950;2022-10-17T03:58:22;14.60;99.90
18454;DHT22;9356;52.202;20.950;2022-10-17T03:59:25;14.10;99.90
18454;DHT22;9356;52.202;20.950;2022-10-17T04:00:36;14.10;99.90
18454;DHT22;9356;52.202;20.950;2022-10-17T04:01:39;14.20;99.90
18454;DHT22;9356;52.202;20.950;2022-10-17T04:02:46;14.10;99.90
18454;DHT22;9356;52.202;20.950;2022-10-17T04:03:54;14.20;99.90
18454;DHT22;9356;52.202;20.950;2022-10-17T04:05:01;14.10;99.90
18454;DHT22;9356;52.202;20.950;2022-10-17T04:06:05;14.10;99.90
18454;DHT22;9356;52.202;20.950;2022-10-17T04:07:11;14.20;99.90
18454;DHT22;9356;52.202;20.950;2022-10-17T04:08:24;14.20;99.90
18454;DHT22;9356;52.202;20.950;2022-10-17T04:09:39;14.20;99.90
18454;DHT22;9356;52.202;20.950;2022-10-17T04:10:47;14.20;99.90
18454;DHT22;9356;52.202;20.950;2022-10-17T04:11:49;14.20;99.90
18454;DHT22;9356;52.202;20.950;2022-10-17T04:12:53;14.20;99.90
18454;DHT22;9356;52.202;20.950;2022-10-17T04:13:57;13.50;99.90
18454;DHT22;9356;52.202;20.950;2022-10-17T04:15:07;14.30;99.90
18454;DHT22;9356;52.202;20.950;2022-10-17T04:16:13;14.30;99.90
18454;DHT22;9356;52.202;20.950;2022-10-17T04:17:30;14.40;99.90
18454;DHT22;9356;52.202;20.950;2022-10-17T04:18:39;14.30;99.90
18454;DHT22;9356;52.202;20.950;2022-10-17T04:19:44;14.40;99.90
18454;DHT22;9356;52.202;20.950;2022-10-17T04:20:48;14.30;99.90
18454;DHT22;9356;52.202;20.950;2022-10-17T04:21:54;14.30;99.90
18454;DHT22;9356;52.202;20.950;2022-10-17T04:22:58;14.30;99.90
18454;DHT22;9356;52.202;20.950;2022-10-17T04:24:02;14.30;99.90
18454;DHT22;9356;52.202;20.950;2022-10-17T04:25:24;14.20;99.90
18454;DHT22;9356;52.202;20.950;2022-10-17T04:26:28;14.20;99.90
18454;DHT22;9356;52.202;20.950;2022-10-17T04:27:30;14.20;99.90
18454;DHT22;9356;52.202;20.950;2022-10-17T04:28:35;14.20;99.90
18454;DHT22;9356;52.202;20.950;2022-10-17T04:29:37;14.10;99.90
18454;DHT22;9356;52.202;20.950;2022-10-17T04:30:55;13.50;99.90
18454;DHT22;9356;52.202;20.950;2022-10-17T04:31:59;14.10;99.90
18454;DHT22;9356;52.202;20.950;2022-10-17T04:33:12;14.10;99.90
18454;DHT22;9356;52.202;20.950;2022-10-17T04:34:16;14.10;99.90
18454;DHT22;9356;52.202;20.950;2022-10-17T04:35:18;14.10;99.90
18454;DHT22;9356;52.202;20.950;2022-10-17T04:36:27;14.10;99.90
18454;DHT22;9356;52.202;20.950;2022-10-17T04:37:32;14.10;99.90
18454;DHT22;9356;52.202;20.950;2022-10-17T04:38:40;14.10;99.90
18454;DHT22;9356;52.202;20.950;2022-10-17T04:39:44;14.20;99.90
18454;DHT22;9356;52.202;20.950;2022-10-17T04:40:47;14.10;99.90
18454;DHT22;9356;52.202;20.950;2022-10-17T04:41:49;14.10;99.90
18454;DHT22;9356;52.202;20.950;2022-10-17T04:42:57;14.20;99.90
18454;DHT22;9356;52.202;20.950;2022-10-17T04:44:08;14.10;99.90
18454;DHT22;9356;52.202;20.950;2022-10-17T04:45:16;14.10;99.90
18454;DHT22;9356;52.202;20.950;2022-10-17T04:46:19;14.10;99.90
18454;DHT22;9356;52.202;20.950;2022-10-17T04:47:23;12.90;99.90
18454;DHT22;9356;52.202;20.950;2022-10-17T04:48:28;14.20;99.90
18454;DHT22;9356;52.202;20.950;2022-10-17T04:49:31;14.20;99.90
18454;DHT22;9356;52.202;20.950;2022-10-17T04:50:52;14.20;99.90
18454;DHT22;9356;52.202;20.950;2022-10-17T04:52:06;14.20;99.90
18454;DHT22;9356;52.202;20.950;2022-10-17T04:53:17;14.10;99.90
18454;DHT22;9356;52.202;20.950;2022-10-17T04:54:20;14.20;99.90
18454;DHT22;9356;52.202;20.950;2022-10-17T04:55:35;14.10;99.90
18454;DHT22;9356;52.202;20.950;2022-10-17T04:56:42;14.10;99.90
18454;DHT22;9356;52.202;20.950;2022-10-17T04:57:46;14.10;99.90
18454;DHT22;9356;52.202;20.950;2022-10-17T04:58:54;14.10;99.90
18454;DHT22;9356;52.202;20.950;2022-10-17T04:59:58;14.10;99.90
18454;DHT22;9356;52.202;20.950;2022-10-17T05:01:22;14.10;99.90
18454;DHT22;9356;52.202;20.950;2022-10-17T05:02:31;14.10;99.90
18454;DHT22;9356;52.202;20.950;2022-10-17T05:03:37;14.10;99.90
18454;DHT22;9356;52.202;20.950;2022-10-17T05:04:40;14.10;99.90
18454;DHT22;9356;52.202;20.950;2022-10-17T05:05:44;14.90;99.90
18454;DHT22;9356;52.202;20.950;2022-10-17T05:06:48;14.10;99.90
18454;DHT22;9356;52.202;20.950;2022-10-17T05:08:10;14.10;99.90
18454;DHT22;9356;52.202;20.950;2022-10-17T05:09:15;14.10;99.90
18454;DHT22;9356;52.202;20.950;2022-10-17T05:10:19;14.10;99.90
18454;DHT22;9356;52.202;20.950;2022-10-17T05:11:27;14.10;99.90
18454;DHT22;9356;52.202;20.950;2022-10-17T05:12:30;13.60;99.90
18454;DHT22;9356;52.202;20.950;2022-10-17T05:13:33;14.10;99.90
18454;DHT22;9356;52.202;20.950;2022-10-17T05:14:36;14.10;99.90
18454;DHT22;9356;52.202;20.950;2022-10-17T05:15:39;14.20;99.90
18454;DHT22;9356;52.202;20.950;2022-10-17T05:16:47;14.20;99.90
18454;DHT22;9356;52.202;20.950;2022-10-17T05:17:53;14.20;99.90
18454;DHT22;9356;52.202;20.950;2022-10-17T05:18:58;14.10;99.90
18454;DHT22;9356;52.202;20.950;2022-10-17T05:20:07;14.10;99.90
18454;DHT22;9356;52.202;20.950;2022-10-17T05:21:11;14.20;99.90
18454;DHT22;9356;52.202;20.950;2022-10-17T05:22:18;14.20;99.90
18454;DHT22;9356;52.202;20.950;2022-10-17T05:23:22;14.20;99.90
18454;DHT22;9356;52.202;20.950;2022-10-17T05:24:26;14.20;99.90
18454;DHT22;9356;52.202;20.950;2022-10-17T05:25:29;14.20;99.90
18454;DHT22;9356;52.202;20.950;2022-10-17T05:26:32;14.30;99.90
18454;DHT22;9356;52.202;20.950;2022-10-17T05:27:35;13.20;99.90
18454;DHT22;9356;52.202;20.950;2022-10-17T05:28:39;15.90;99.90
18454;DHT22;9356;52.202;20.950;2022-10-17T05:29:42;14.50;99.90
18454;DHT22;9356;52.202;20.950;2022-10-17T05:30:55;14.50;99.90
18454;DHT22;9356;52.202;20.950;2022-10-17T05:32:00;14.50;99.90
18454;DHT22;9356;52.202;20.950;2022-10-17T05:33:10;14.50;99.90
18454;DHT22;9356;52.202;20.950;2022-10-17T05:34:16;14.50;99.90
18454;DHT22;9356;52.202;20.950;2022-10-17T05:35:23;14.60;99.90
18454;DHT22;9356;52.202;20.950;2022-10-17T05:36:27;14.50;99.90
18454;DHT22;9356;52.202;20.950;2022-10-17T05:37:32;14.50;99.90
18454;DHT22;9356;52.202;20.950;2022-10-17T05:38:36;14.60;99.90
18454;DHT22;9356;52.202;20.950;2022-10-17T05:39:44;14.60;99.90
18454;DHT22;9356;52.202;20.950;2022-10-17T05:40:56;14.60;99.90
18454;DHT22;9356;52.202;20.950;2022-10-17T05:42:01;14.60;99.90
18454;DHT22;9356;52.202;20.950;2022-10-17T05:43:04;14.70;99.90
18454;DHT22;9356;52.202;20.950;2022-10-17T05:44:08;14.70;99.90
18454;DHT22;9356;52.202;20.950;2022-10-17T05:45:17;14.80;99.90
18454;DHT22;9356;52.202;20.950;2022-10-17T05:46:21;14.80;99.90
18454;DHT22;9356;52.202;20.950;2022-10-17T05:47:23;14.90;99.90
18454;DHT22;9356;52.202;20.950;2022-10-17T05:48:27;14.80;99.90
18454;DHT22;9356;52.202;20.950;2022-10-17T05:49:29;15.00;99.90
18454;DHT22;9356;52.202;20.950;2022-10-17T05:50:49;15.10;99.90
18454;DHT22;9356;52.202;20.950;2022-10-17T05:51:54;15.40;99.90
18454;DHT22;9356;52.202;20.950;2022-10-17T05:52:58;15.30;99.90
18454;DHT22;9356;52.202;20.950;2022-10-17T05:54:04;15.40;99.90
18454;DHT22;9356;52.202;20.950;2022-10-17T05:55:09;15.40;99.90
18454;DHT22;9356;52.202;20.950;2022-10-17T05:56:14;15.30;99.90
18454;DHT22;9356;52.202;20.950;2022-10-17T05:57:17;15.30;99.90
18454;DHT22;9356;52.202;20.950;2022-10-17T05:58:22;15.30;99.90
18454;DHT22;9356;52.202;20.950;2022-10-17T05:59:56;15.30;99.90
18454;DHT22;9356;52.202;20.950;2022-10-17T06:01:05;15.30;99.90
18454;DHT22;9356;52.202;20.950;2022-10-17T06:02:13;15.20;99.90
18454;DHT22;9356;52.202;20.950;2022-10-17T06:03:17;15.20;99.90
18454;DHT22;9356;52.202;20.950;2022-10-17T06:04:20;15.20;99.90
18454;DHT22;9356;52.202;20.950;2022-10-17T06:05:24;15.20;99.90
18454;DHT22;9356;52.202;20.950;2022-10-17T06:06:26;15.20;99.90
18454;DHT22;9356;52.202;20.950;2022-10-17T06:07:30;15.20;99.90
18454;DHT22;9356;52.202;20.950;2022-10-17T06:08:33;14.50;99.90
18454;DHT22;9356;52.202;20.950;2022-10-17T06:09:37;15.20;99.90
18454;DHT22;9356;52.202;20.950;2022-10-17T06:10:41;15.10;99.90
18454;DHT22;9356;52.202;20.950;2022-10-17T06:11:45;15.10;99.90
18454;DHT22;9356;52.202;20.950;2022-10-17T06:12:50;15.20;99.90
18454;DHT22;9356;52.202;20.950;2022-10-17T06:13:55;15.20;99.90
18454;DHT22;9356;52.202;20.950;2022-10-17T06:14:59;15.40;99.90
18454;DHT22;9356;52.202;20.950;2022-10-17T06:16:04;13.70;99.90
18454;DHT22;9356;52.202;20.950;2022-10-17T06:17:07;15.60;99.90
18454;DHT22;9356;52.202;20.950;2022-10-17T06:18:17;15.70;99.90
18454;DHT22;9356;52.202;20.950;2022-10-17T06:19:21;15.80;99.90
18454;DHT22;9356;52.202;20.950;2022-10-17T06:20:25;15.90;99.90
18454;DHT22;9356;52.202;20.950;2022-10-17T06:21:28;16.00;99.90
18454;DHT22;9356;52.202;20.950;2022-10-17T06:22:39;16.80;99.90
18454;DHT22;9356;52.202;20.950;2022-10-17T06:23:48;16.30;99.90
18454;DHT22;9356;52.202;20.950;2022-10-17T06:25:05;16.40;99.90
18454;DHT22;9356;52.202;20.950;2022-10-17T06:26:10;16.60;99.90
18454;DHT22;9356;52.202;20.950;2022-10-17T06:27:13;16.70;99.90
18454;DHT22;9356;52.202;20.950;2022-10-17T06:28:20;16.40;99.90
18454;DHT22;9356;52.202;20.950;2022-10-17T06:29:24;16.90;99.90
18454;DHT22;9356;52.202;20.950;2022-10-17T06:30:27;17.00;99.90
18454;DHT22;9356;52.202;20.950;2022-10-17T06:31:30;17.10;99.90
18454;DHT22;9356;52.202;20.950;2022-10-17T06:32:33;17.20;99.90
18454;DHT22;9356;52.202;20.950;2022-10-17T06:33:36;17.30;99.90
18454;DHT22;9356;52.202;20.950;2022-10-17T06:34:40;17.50;99.90
18454;DHT22;9356;52.202;20.950;2022-10-17T06:35:43;17.50;99.70
18454;DHT22;9356;52.202;20.950;2022-10-17T06:36:52;17.60;99.60
18454;DHT22;9356;52.202;20.950;2022-10-17T06:37:55;17.70;99.50
18454;DHT22;9356;52.202;20.950;2022-10-17T06:38:59;17.80;99.80
18454;DHT22;9356;52.202;20.950;2022-10-17T06:40:09;17.80;99.70
18454;DHT22;9356;52.202;20.950;2022-10-17T06:41:16;18.00;99.50
18454;DHT22;9356;52.202;20.950;2022-10-17T06:42:20;18.00;99.00
18454;DHT22;9356;52.202;20.950;2022-10-17T06:43:42;18.10;99.00
18454;DHT22;9356;52.202;20.950;2022-10-17T06:45:14;18.20;98.40
18454;DHT22;9356;52.202;20.950;2022-10-17T06:46:56;18.30;98.60
18454;DHT22;9356;52.202;20.950;2022-10-17T06:48:01;18.40;98.10
18454;DHT22;9356;52.202;20.950;2022-10-17T06:49:17;18.50;98.20
18454;DHT22;9356;52.202;20.950;2022-10-17T06:50:44;18.50;97.90
18454;DHT22;9356;52.202;20.950;2022-10-17T06:51:55;18.60;98.20
18454;DHT22;9356;52.202;20.950;2022-10-17T06:53:07;18.70;98.10
18454;DHT22;9356;52.202;20.950;2022-10-17T06:54:36;18.80;98.10
18454;DHT22;9356;52.202;20.950;2022-10-17T06:56:08;18.90;97.80
18454;DHT22;9356;52.202;20.950;2022-10-17T06:57:35;19.10;97.70
18454;DHT22;9356;52.202;20.950;2022-10-17T06:58:57;19.30;98.30
18454;DHT22;9356;52.202;20.950;2022-10-17T07:00:04;19.50;97.20
18454;DHT22;9356;52.202;20.950;2022-10-17T07:01:15;19.60;96.60
18454;DHT22;9356;52.202;20.950;2022-10-17T07:02:20;19.70;96.50
18454;DHT22;9356;52.202;20.950;2022-10-17T07:03:25;20.30;96.40
18454;DHT22;9356;52.202;20.950;2022-10-17T07:04:29;19.80;95.90
18454;DHT22;9356;52.202;20.950;2022-10-17T07:05:31;19.90;96.00
18454;DHT22;9356;52.202;20.950;2022-10-17T07:06:38;19.80;95.40
18454;DHT22;9356;52.202;20.950;2022-10-17T07:07:54;19.80;95.40
18454;DHT22;9356;52.202;20.950;2022-10-17T07:08:57;20.50;95.70
18454;DHT22;9356;52.202;20.950;2022-10-17T07:10:02;19.60;95.40
18454;DHT22;9356;52.202;20.950;2022-10-17T07:11:16;19.60;95.50